createdAt,value
2018-07-22T00:01:18.310Z,25.30
2018-07-22T00:03:46.358Z,25.90
2018-07-22T00:06:14.453Z,22.20
2018-07-22T00:13:37.046Z,25.50
2018-07-22T00:16:05.594Z,25.00
2018-07-22T00:18:33.637Z,25.60
2018-07-22T00:21:01.703Z,27.55
2018-07-22T00:23:29.780Z,26.90
2018-07-22T00:25:57.601Z,27.93
2018-07-22T00:28:25.638Z,25.90
2018-07-22T00:30:53.686Z,26.67
2018-07-22T00:43:11.049Z,26.93
2018-07-22T00:45:39.105Z,29.17
2018-07-22T00:48:07.157Z,30.70
2018-07-22T00:50:35.206Z,30.10
2018-07-22T00:53:03.038Z,31.10
2018-07-22T00:55:31.089Z,25.53
2018-07-22T00:57:59.138Z,27.57
2018-07-22T01:00:27.190Z,28.67
2018-07-22T01:02:55.249Z,29.10
2018-07-22T01:05:23.298Z,27.80
2018-07-22T01:07:51.373Z,31.37
2018-07-22T01:10:19.434Z,29.40
2018-07-22T01:12:47.483Z,27.97
2018-07-22T01:15:15.525Z,28.23
2018-07-22T01:17:43.586Z,28.13
2018-07-22T01:20:11.642Z,31.40
2018-07-22T01:22:39.710Z,25.47
2018-07-22T01:25:07.955Z,27.37
2018-07-22T01:27:36.002Z,31.17
2018-07-22T01:30:05.738Z,27.33
2018-07-22T01:32:33.564Z,27.87
2018-07-22T01:35:01.619Z,28.30
2018-07-22T01:37:29.662Z,29.10
2018-07-22T01:39:57.702Z,30.43
2018-07-22T01:42:25.762Z,35.53
2018-07-22T01:44:53.820Z,30.90
2018-07-22T01:47:21.854Z,29.67
2018-07-22T01:49:49.910Z,28.07
2018-07-22T01:52:17.969Z,26.77
2018-07-22T01:54:46.023Z,29.40
2018-07-22T01:57:14.079Z,29.50
2018-07-22T01:59:42.126Z,30.53
2018-07-22T02:02:10.285Z,35.47
2018-07-22T02:04:38.338Z,29.93
2018-07-22T02:07:06.388Z,30.43
2018-07-22T02:09:34.434Z,28.90
2018-07-22T02:12:02.475Z,30.50
2018-07-22T02:14:30.528Z,27.73
2018-07-22T02:16:58.578Z,27.37
2018-07-22T02:19:26.634Z,32.53
2018-07-22T02:21:54.678Z,28.37
2018-07-22T02:24:22.729Z,28.07
2018-07-22T02:26:50.785Z,26.13
2018-07-22T02:29:18.829Z,26.33
2018-07-22T02:31:46.874Z,25.50
2018-07-22T02:34:14.917Z,24.87
2018-07-22T02:36:42.954Z,24.67
2018-07-22T02:39:12.515Z,22.73
2018-07-22T02:41:40.615Z,23.67
2018-07-22T02:44:08.943Z,23.80
2018-07-22T02:46:37.182Z,22.10
2018-07-22T02:49:05.653Z,25.40
2018-07-22T02:51:33.847Z,23.53
2018-07-22T02:54:01.855Z,22.70
2018-07-22T02:56:29.900Z,24.00
2018-07-22T02:58:57.942Z,26.63
2018-07-22T03:01:25.977Z,27.70
2018-07-22T03:03:54.030Z,27.87
2018-07-22T03:06:22.094Z,28.13
2018-07-22T03:08:50.158Z,30.87
2018-07-22T03:11:18.215Z,29.70
2018-07-22T03:13:46.259Z,31.20
2018-07-22T03:16:14.314Z,28.03
2018-07-22T03:18:42.388Z,27.60
2018-07-22T03:21:10.435Z,27.80
2018-07-22T03:23:38.487Z,26.33
2018-07-22T03:26:06.537Z,25.67
2018-07-22T03:28:34.626Z,27.37
2018-07-22T03:31:02.730Z,28.00
2018-07-22T03:33:30.768Z,27.33
2018-07-22T03:35:58.814Z,27.93
2018-07-22T03:38:26.855Z,27.80
2018-07-22T03:40:55.022Z,28.03
2018-07-22T03:43:23.079Z,28.33
2018-07-22T03:45:51.123Z,24.23
2018-07-22T03:48:19.194Z,25.10
2018-07-22T03:50:47.234Z,26.30
2018-07-22T03:53:15.270Z,21.73
2018-07-22T03:55:43.331Z,20.70
2018-07-22T03:58:11.357Z,19.13
2018-07-22T04:00:39.197Z,19.37
2018-07-22T04:03:07.415Z,20.10
2018-07-22T04:05:35.473Z,19.40
2018-07-22T04:08:03.518Z,21.37
2018-07-22T04:10:31.710Z,20.20
2018-07-22T04:12:59.750Z,18.30
2018-07-22T04:15:27.796Z,18.77
2018-07-22T04:17:55.842Z,17.33
2018-07-22T04:20:23.902Z,17.27
2018-07-22T04:22:51.942Z,20.37
2018-07-22T04:25:19.986Z,18.80
2018-07-22T04:27:48.031Z,18.37
2018-07-22T04:30:15.857Z,19.40
2018-07-22T04:32:43.905Z,19.07
2018-07-22T04:35:11.946Z,20.60
2018-07-22T04:37:39.992Z,20.10
2018-07-22T04:45:02.830Z,18.53
2018-07-22T04:52:25.618Z,20.63
2018-07-22T04:54:53.466Z,21.13
2018-07-22T04:57:21.299Z,20.57
2018-07-22T04:59:49.370Z,22.33
2018-07-22T05:02:17.402Z,22.73
2018-07-22T05:04:45.450Z,21.97
2018-07-22T05:12:08.550Z,23.23
2018-07-22T05:14:36.590Z,21.63
2018-07-22T05:17:04.438Z,19.27
2018-07-22T05:19:32.269Z,18.67
2018-07-22T05:22:00.356Z,16.77
2018-07-22T05:24:28.370Z,17.70
2018-07-22T05:26:56.406Z,16.40
2018-07-22T05:29:24.486Z,16.60
2018-07-22T05:31:52.538Z,15.73
2018-07-22T05:34:20.582Z,15.97
2018-07-22T05:36:48.634Z,13.30
2018-07-22T05:39:16.686Z,13.60
2018-07-22T05:41:44.721Z,12.93
2018-07-22T05:44:12.766Z,13.93
2018-07-22T05:46:40.822Z,15.13
2018-07-22T05:49:08.873Z,14.67
2018-07-22T05:51:36.918Z,14.03
2018-07-22T05:54:04.888Z,13.87
2018-07-22T05:56:32.842Z,13.23
2018-07-22T05:59:00.877Z,14.33
2018-07-22T06:01:28.709Z,13.80
2018-07-22T06:03:56.749Z,12.87
2018-07-22T06:06:24.799Z,12.93
2018-07-22T06:08:52.848Z,13.30
2018-07-22T06:11:20.884Z,13.57
2018-07-22T06:13:48.920Z,14.07
2018-07-22T06:16:16.970Z,13.60
2018-07-22T06:23:39.566Z,15.00
2018-07-22T06:26:07.614Z,13.57
2018-07-22T06:28:35.655Z,14.57
2018-07-22T06:31:03.727Z,14.60
2018-07-22T06:33:31.772Z,15.10
2018-07-22T06:35:59.933Z,15.13
2018-07-22T06:38:27.974Z,15.53
2018-07-22T06:40:56.018Z,14.93
2018-07-22T06:43:24.061Z,15.33
2018-07-22T06:45:52.093Z,14.53
2018-07-22T06:48:20.140Z,16.90
2018-07-22T06:50:48.194Z,17.67
2018-07-22T06:53:16.247Z,15.87
2018-07-22T06:55:44.286Z,16.50
2018-07-22T06:58:12.353Z,14.50
2018-07-22T07:00:40.398Z,14.57
2018-07-22T07:03:08.474Z,14.03
2018-07-22T07:05:36.540Z,13.10
2018-07-22T07:08:04.762Z,13.07
2018-07-22T07:10:32.838Z,13.60
2018-07-22T07:13:00.895Z,13.60
2018-07-22T07:15:28.977Z,14.33
2018-07-22T07:17:56.834Z,14.43
2018-07-22T07:20:24.686Z,13.57
2018-07-22T07:22:52.741Z,13.13
2018-07-22T07:25:20.577Z,14.27
2018-07-22T07:27:48.625Z,14.30
2018-07-22T07:30:16.687Z,13.60
2018-07-22T07:32:44.726Z,14.30
2018-07-22T07:35:12.790Z,13.77
2018-07-22T07:37:40.890Z,13.70
2018-07-22T07:40:08.986Z,13.75
2018-07-22T07:42:37.037Z,13.63
2018-07-22T07:45:05.263Z,13.13
2018-07-22T07:47:33.342Z,14.63
2018-07-22T07:50:03.618Z,13.70
2018-07-22T07:52:31.522Z,14.10
2018-07-22T07:54:59.630Z,13.90
2018-07-22T07:59:55.590Z,13.90
2018-07-22T08:02:25.193Z,14.13
2018-07-22T08:04:53.328Z,14.60
2018-07-22T08:07:21.727Z,14.37
2018-07-22T08:09:49.773Z,13.53
2018-07-22T08:12:17.821Z,12.67
2018-07-22T08:19:40.799Z,13.30
2018-07-22T08:22:08.889Z,13.00
2018-07-22T08:24:36.933Z,13.60
2018-07-22T08:27:04.994Z,13.10
2018-07-22T08:32:02.150Z,13.53
2018-07-22T08:34:30.366Z,13.53
2018-07-22T08:36:58.589Z,11.90
2018-07-22T08:39:27.761Z,13.50
2018-07-22T08:41:56.233Z,13.07
2018-07-22T08:44:24.306Z,11.50
2018-07-22T08:46:52.389Z,12.03
2018-07-22T08:49:20.474Z,11.87
2018-07-22T08:51:48.537Z,12.07
2018-07-22T08:54:16.598Z,10.90
2018-07-22T08:56:44.674Z,10.77
2018-07-22T08:59:12.727Z,11.70
2018-07-22T09:01:40.802Z,11.55
2018-07-22T09:06:36.266Z,13.17
2018-07-22T09:09:08.292Z,11.07
2018-07-22T09:11:36.438Z,10.30
2018-07-22T09:14:05.015Z,11.07
2018-07-22T09:16:33.130Z,10.37
2018-07-22T09:19:01.515Z,10.57
2018-07-22T09:23:56.810Z,9.80
2018-07-22T09:26:24.629Z,9.87
2018-07-22T09:28:52.683Z,8.40
2018-07-22T09:31:20.738Z,8.60
2018-07-22T09:33:48.813Z,9.70
2018-07-22T09:36:17.014Z,9.27
2018-07-22T09:38:44.903Z,9.95
2018-07-22T09:41:12.965Z,12.57
2018-07-22T09:43:41.010Z,9.50
2018-07-22T09:46:09.054Z,9.25
2018-07-22T09:48:37.098Z,8.83
2018-07-22T09:51:05.141Z,9.30
2018-07-22T09:53:33.178Z,8.67
2018-07-22T09:56:01.030Z,8.70
2018-07-22T09:58:28.923Z,8.80
2018-07-22T10:03:26.989Z,8.87
2018-07-22T10:05:55.050Z,9.03
2018-07-22T10:08:23.164Z,9.20
2018-07-22T10:10:51.217Z,7.50
2018-07-22T10:13:19.254Z,8.47
2018-07-22T10:15:47.141Z,8.10
2018-07-22T10:23:09.979Z,6.57
2018-07-22T10:25:38.011Z,8.17
2018-07-22T10:28:06.086Z,6.95
2018-07-22T10:33:01.751Z,7.57
2018-07-22T10:35:29.882Z,7.47
2018-07-22T10:37:57.922Z,6.95
2018-07-22T10:40:25.966Z,7.67
2018-07-22T10:42:54.163Z,8.00
2018-07-22T10:45:22.311Z,8.17
2018-07-22T10:47:50.347Z,6.97
2018-07-22T10:50:18.426Z,7.00
2018-07-22T10:52:46.459Z,7.50
2018-07-22T10:55:14.495Z,7.30
2018-07-22T10:57:42.550Z,7.10
2018-07-22T11:00:10.598Z,7.90
2018-07-22T11:05:07.062Z,8.38
2018-07-22T11:17:24.465Z,7.83
2018-07-22T11:24:47.277Z,7.42
2018-07-22T11:27:15.362Z,8.33
2018-07-22T11:29:43.401Z,8.80
2018-07-22T11:32:11.430Z,8.65
2018-07-22T11:37:06.861Z,8.03
2018-07-22T11:39:34.901Z,9.03
2018-07-22T11:45:57.143Z,8.13
2018-07-22T11:48:25.222Z,8.33
2018-07-22T11:53:20.648Z,7.80
2018-07-22T12:03:15.162Z,7.27
2018-07-22T12:05:43.202Z,8.20
2018-07-22T12:08:11.405Z,7.70
2018-07-22T12:13:06.850Z,8.07
2018-07-22T12:15:34.891Z,8.27
2018-07-22T12:18:02.943Z,36.27
2018-07-22T12:20:31.001Z,19.73
2018-07-22T12:22:59.062Z,13.07
2018-07-22T12:25:27.209Z,17.90
2018-07-22T12:27:55.303Z,21.20
2018-07-22T12:30:23.333Z,23.97
2018-07-22T12:32:51.382Z,33.50
2018-07-22T12:35:19.458Z,36.73
2018-07-22T12:37:47.869Z,43.80
2018-07-22T12:40:16.027Z,39.90
2018-07-22T12:42:44.038Z,30.47
2018-07-22T12:45:12.275Z,31.90
2018-07-22T12:47:40.339Z,29.37
2018-07-22T12:50:08.177Z,22.70
2018-07-22T12:52:36.225Z,25.30
2018-07-22T12:55:04.281Z,26.37
2018-07-22T12:57:32.349Z,23.97
2018-07-22T13:00:00.406Z,30.30
2018-07-22T13:02:28.458Z,32.20
2018-07-22T13:04:56.506Z,28.53
2018-07-22T13:07:24.566Z,31.03
2018-07-22T13:09:52.627Z,33.43
2018-07-22T13:12:20.737Z,35.13
2018-07-22T13:14:48.798Z,27.73
2018-07-22T13:17:16.861Z,26.70
2018-07-22T13:19:44.940Z,27.20
2018-07-22T13:22:12.998Z,27.85
2018-07-22T13:24:41.067Z,18.37
2018-07-22T13:27:09.118Z,49.70
2018-07-22T13:29:37.163Z,25.70
2018-07-22T13:32:05.235Z,22.63
2018-07-22T13:34:33.344Z,26.63
2018-07-22T13:37:01.362Z,30.80
2018-07-22T13:39:29.200Z,15.93
2018-07-22T13:41:57.270Z,22.97
2018-07-22T13:44:25.327Z,26.27
2018-07-22T13:46:53.382Z,23.40
2018-07-22T13:49:21.444Z,23.40
2018-07-22T13:51:49.510Z,25.83
2018-07-22T13:54:17.559Z,30.80
2018-07-22T13:56:45.611Z,29.73
2018-07-22T13:59:13.502Z,31.37
2018-07-22T14:01:41.561Z,32.13
2018-07-22T14:04:09.619Z,29.90
2018-07-22T14:06:37.673Z,33.33
2018-07-22T14:09:07.802Z,37.37
2018-07-22T14:11:35.915Z,45.97
2018-07-22T14:14:03.974Z,39.10
2018-07-22T14:16:32.034Z,42.23
2018-07-22T14:19:00.070Z,43.60
2018-07-22T14:21:28.123Z,53.57
2018-07-22T14:23:56.170Z,52.10
2018-07-22T14:26:24.078Z,44.00
2018-07-22T14:28:52.149Z,55.40
2018-07-22T14:31:20.251Z,55.30
2018-07-22T14:33:48.303Z,48.80
2018-07-22T14:36:16.137Z,50.50
2018-07-22T14:38:44.017Z,44.33
2018-07-22T14:41:12.078Z,53.13
2018-07-22T14:43:40.117Z,53.13
2018-07-22T14:46:08.171Z,43.60
2018-07-22T14:48:36.006Z,51.10
2018-07-22T14:51:04.059Z,47.63
2018-07-22T14:53:32.129Z,50.97
2018-07-22T14:56:00.163Z,64.47
2018-07-22T14:58:28.194Z,46.57
2018-07-22T15:00:56.247Z,41.07
2018-07-22T15:03:24.317Z,43.60
2018-07-22T15:05:52.353Z,53.23
2018-07-22T15:08:20.425Z,54.03
2018-07-22T15:10:48.486Z,54.27
2018-07-22T15:13:16.622Z,49.63
2018-07-22T15:15:44.694Z,42.87
2018-07-22T15:18:12.831Z,37.57
2018-07-22T15:20:41.013Z,40.77
2018-07-22T15:23:09.277Z,40.37
2018-07-22T15:25:37.325Z,37.87
2018-07-22T15:28:05.374Z,38.37
2018-07-22T15:30:33.417Z,37.07
2018-07-22T15:33:01.470Z,42.93
2018-07-22T15:35:29.533Z,52.23
2018-07-22T15:37:57.587Z,50.67
2018-07-22T15:40:25.646Z,46.10
2018-07-22T15:42:53.689Z,50.03
2018-07-22T15:45:21.846Z,43.80
2018-07-22T15:47:49.882Z,56.10
2018-07-22T15:50:17.926Z,47.23
2018-07-22T15:52:45.761Z,37.03
2018-07-22T15:55:13.920Z,47.13
2018-07-22T15:57:41.858Z,35.87
2018-07-22T16:00:10.414Z,39.87
2018-07-22T16:02:38.886Z,37.57
2018-07-22T16:05:06.926Z,37.33
2018-07-22T16:07:35.207Z,32.30
2018-07-22T16:10:03.331Z,33.60
2018-07-22T16:12:31.373Z,36.10
2018-07-22T16:14:59.430Z,31.23
2018-07-22T16:17:27.502Z,24.17
2018-07-22T16:19:55.681Z,19.50
2018-07-22T16:22:23.719Z,20.53
2018-07-22T16:24:51.770Z,19.87
2018-07-22T16:27:19.822Z,20.13
2018-07-22T16:29:47.881Z,21.23
2018-07-22T16:32:15.930Z,22.73
2018-07-22T16:34:43.985Z,20.87
2018-07-22T16:37:12.134Z,20.20
2018-07-22T16:39:40.193Z,20.97
2018-07-22T16:42:08.278Z,24.13
2018-07-22T16:44:36.298Z,24.87
2018-07-22T16:47:04.341Z,26.47
2018-07-22T16:49:32.190Z,31.47
2018-07-22T16:52:00.226Z,28.33
2018-07-22T16:54:28.262Z,29.60
2018-07-22T16:56:56.347Z,31.07
2018-07-22T16:59:24.389Z,29.00
2018-07-22T17:01:52.658Z,29.37
2018-07-22T17:04:20.702Z,28.10
2018-07-22T17:06:48.745Z,28.43
2018-07-22T17:09:17.014Z,30.10
2018-07-22T17:11:45.069Z,30.87
2018-07-22T17:14:13.161Z,31.53
2018-07-22T17:16:41.210Z,34.07
2018-07-22T17:19:09.064Z,32.30
2018-07-22T17:21:36.904Z,27.90
2018-07-22T17:24:05.078Z,27.00
2018-07-22T17:26:33.118Z,25.80
2018-07-22T17:29:01.469Z,25.73
2018-07-22T17:31:29.513Z,26.93
2018-07-22T17:33:57.594Z,28.27
2018-07-22T17:36:25.651Z,28.77
2018-07-22T17:38:53.782Z,29.27
2018-07-22T17:41:21.815Z,30.93
2018-07-22T17:43:50.040Z,32.77
2018-07-22T17:46:18.070Z,35.20
2018-07-22T17:48:46.130Z,34.30
2018-07-22T17:51:14.182Z,36.03
2018-07-22T17:53:42.234Z,33.03
2018-07-22T17:56:10.302Z,32.37
2018-07-22T17:58:38.382Z,32.97
2018-07-22T18:01:06.418Z,34.13
2018-07-22T18:03:34.482Z,38.87
2018-07-22T18:06:02.341Z,32.00
2018-07-22T18:08:30.415Z,30.27
2018-07-22T18:10:58.486Z,33.50
2018-07-22T18:13:26.615Z,33.60
2018-07-22T18:15:54.468Z,32.90
2018-07-22T18:18:22.518Z,33.50
2018-07-22T18:20:50.609Z,34.67
2018-07-22T18:23:18.639Z,36.97
2018-07-22T18:25:46.878Z,38.33
2018-07-22T18:28:15.445Z,37.83
2018-07-22T18:30:44.097Z,38.57
2018-07-22T18:33:12.154Z,38.23
2018-07-22T18:35:40.198Z,37.77
2018-07-22T18:38:08.242Z,40.50
2018-07-22T18:40:36.295Z,42.10
2018-07-22T18:43:04.345Z,41.20
2018-07-22T18:45:32.435Z,67.07
2018-07-22T18:48:00.434Z,58.53
2018-07-22T18:50:28.494Z,52.60
2018-07-22T18:52:56.579Z,37.37
2018-07-22T18:55:24.618Z,40.77
2018-07-22T18:57:52.667Z,40.70
2018-07-22T19:00:20.721Z,38.73
2018-07-22T19:02:48.761Z,33.33
2018-07-22T19:05:16.600Z,35.47
2018-07-22T19:07:44.517Z,34.70
2018-07-22T19:10:12.574Z,37.80
2018-07-22T19:12:40.621Z,37.13
2018-07-22T19:15:08.734Z,37.23
2018-07-22T19:17:36.802Z,36.63
2018-07-22T19:20:05.137Z,36.47
2018-07-22T19:22:33.267Z,35.53
2018-07-22T19:25:01.335Z,38.47
2018-07-22T19:27:29.425Z,39.00
2018-07-22T19:29:57.341Z,40.83
2018-07-22T19:32:25.470Z,43.73
2018-07-22T19:34:53.566Z,46.10
2018-07-22T19:37:21.662Z,44.70
2018-07-22T19:39:49.734Z,35.73
2018-07-22T19:42:17.801Z,38.93
2018-07-22T19:44:47.634Z,39.47
2018-07-22T19:47:16.211Z,39.43
2018-07-22T19:49:45.080Z,36.33
2018-07-22T19:52:13.465Z,40.67
2018-07-22T19:54:42.278Z,40.50
2018-07-22T19:57:11.280Z,37.57
2018-07-22T19:59:40.350Z,38.47
2018-07-22T20:02:08.423Z,40.27
2018-07-22T20:04:36.467Z,46.53
2018-07-22T20:07:04.505Z,44.40
2018-07-22T20:09:32.682Z,45.60
2018-07-22T20:12:00.828Z,45.53
2018-07-22T20:14:28.891Z,43.07
2018-07-22T20:16:56.946Z,44.57
2018-07-22T20:19:24.987Z,41.70
2018-07-22T20:21:53.130Z,38.13
2018-07-22T20:24:21.221Z,39.27
2018-07-22T20:26:49.227Z,40.90
2018-07-22T20:29:17.278Z,46.60
2018-07-22T20:31:45.377Z,44.30
2018-07-22T20:34:13.378Z,42.37
2018-07-22T20:36:41.455Z,42.80
2018-07-22T20:39:09.818Z,45.10
2018-07-22T20:41:38.239Z,49.63
2018-07-22T20:44:06.331Z,46.87
2018-07-22T20:46:34.390Z,46.93
2018-07-22T20:49:02.454Z,44.83
2018-07-22T20:51:30.489Z,44.50
2018-07-22T20:53:58.533Z,37.10
2018-07-22T20:56:26.689Z,39.10
2018-07-22T20:58:54.750Z,42.87
2018-07-22T21:01:22.825Z,37.70
2018-07-22T21:03:50.909Z,39.13
2018-07-22T21:06:18.940Z,36.30
2018-07-22T21:08:47.015Z,37.80
2018-07-22T21:11:15.382Z,40.50
2018-07-22T21:13:43.458Z,42.50
2018-07-22T21:16:11.506Z,45.80
2018-07-22T21:18:39.583Z,43.73
2018-07-22T21:21:07.642Z,50.03
2018-07-22T21:23:35.670Z,49.07
2018-07-22T21:26:03.756Z,45.77
2018-07-22T21:28:31.794Z,46.83
2018-07-22T21:30:59.847Z,45.73
2018-07-22T21:33:27.898Z,45.97
2018-07-22T21:35:55.970Z,44.63
2018-07-22T21:38:24.035Z,41.63
2018-07-22T21:40:52.091Z,43.50
2018-07-22T21:43:20.166Z,48.47
2018-07-22T21:45:48.218Z,51.13
2018-07-22T21:48:16.257Z,46.93
2018-07-22T21:50:44.333Z,50.90
2018-07-22T21:53:12.377Z,50.03
2018-07-22T21:55:40.445Z,46.47
2018-07-22T21:58:08.486Z,50.87
2018-07-22T22:00:42.097Z,52.00
2018-07-22T22:03:10.218Z,48.93
2018-07-22T22:05:38.281Z,50.67
2018-07-22T22:08:06.414Z,47.97
2018-07-22T22:10:34.453Z,45.17
2018-07-22T22:13:02.514Z,42.60
2018-07-22T22:15:31.638Z,47.50
2018-07-22T22:18:00.914Z,46.90
2018-07-22T22:20:29.393Z,47.63
2018-07-22T22:22:57.759Z,48.97
2018-07-22T22:25:25.818Z,44.03
2018-07-22T22:27:53.684Z,45.10
2018-07-22T22:30:21.535Z,45.60
2018-07-22T22:32:49.586Z,48.33
2018-07-22T22:35:17.677Z,46.20
2018-07-22T22:37:46.188Z,49.43
2018-07-22T22:40:15.063Z,46.67
2018-07-22T22:42:44.441Z,47.27
2018-07-22T22:45:12.814Z,51.63
2018-07-22T22:47:40.869Z,51.33
2018-07-22T22:50:08.905Z,49.70
2018-07-22T22:52:36.942Z,47.87
2018-07-22T22:55:04.989Z,48.53
2018-07-22T22:57:33.066Z,46.53
2018-07-22T23:00:01.101Z,41.53
2018-07-22T23:02:34.137Z,48.17
2018-07-22T23:05:02.178Z,52.47
2018-07-22T23:07:30.222Z,49.07
2018-07-22T23:09:58.273Z,57.27
2018-07-22T23:12:26.317Z,54.97
2018-07-22T23:14:54.370Z,48.33
2018-07-22T23:17:22.410Z,47.43
2018-07-22T23:19:50.455Z,53.67
2018-07-22T23:22:18.501Z,54.50
2018-07-22T23:24:46.333Z,61.47
2018-07-22T23:27:14.386Z,50.63
2018-07-22T23:29:42.429Z,55.47
2018-07-22T23:32:10.703Z,68.53
2018-07-22T23:34:38.746Z,64.27
2018-07-22T23:37:06.793Z,72.43
2018-07-22T23:39:34.834Z,79.00
2018-07-22T23:42:02.895Z,77.23
2018-07-22T23:44:30.937Z,63.93
2018-07-22T23:46:58.977Z,72.77
2018-07-22T23:49:27.017Z,63.23
2018-07-22T23:51:54.858Z,56.30
2018-07-22T23:54:22.914Z,58.60
2018-07-22T23:56:50.979Z,65.87
2018-07-22T23:59:18.818Z,58.67
